createdAt,value
2018-05-18T00:01:07.462Z,5.22
2018-05-18T00:03:35.066Z,5.93
2018-05-18T00:06:02.709Z,5.50
2018-05-18T00:08:30.323Z,6.37
2018-05-18T00:10:57.937Z,6.03
2018-05-18T00:13:25.520Z,5.68
2018-05-18T00:15:53.929Z,5.25
2018-05-18T00:18:21.532Z,5.75
2018-05-18T00:20:49.098Z,5.40
2018-05-18T00:23:16.762Z,5.30
2018-05-18T00:25:44.337Z,5.68
2018-05-18T00:28:13.429Z,3.72
2018-05-18T00:30:41.042Z,6.90
2018-05-18T00:33:08.666Z,5.25
2018-05-18T00:35:37.045Z,5.90
2018-05-18T00:38:05.397Z,4.87
2018-05-18T00:40:32.983Z,5.30
2018-05-18T00:43:00.590Z,5.95
2018-05-18T00:45:28.175Z,5.60
2018-05-18T00:47:55.769Z,5.25
2018-05-18T00:50:24.229Z,5.00
2018-05-18T00:52:51.752Z,7.25
2018-05-18T00:55:31.392Z,6.43
2018-05-18T00:57:58.979Z,5.62
2018-05-18T01:00:26.643Z,4.37
2018-05-18T01:02:54.219Z,5.75
2018-05-18T01:05:21.836Z,6.00
2018-05-18T01:07:49.446Z,5.55
2018-05-18T01:10:17.923Z,5.47
2018-05-18T01:12:45.533Z,6.12
2018-05-18T01:15:13.081Z,4.75
2018-05-18T01:17:40.691Z,5.93
2018-05-18T01:20:08.311Z,6.87
2018-05-18T01:22:36.011Z,5.03
2018-05-18T01:25:03.570Z,4.70
2018-05-18T01:27:31.190Z,4.78
2018-05-18T01:29:58.775Z,4.18
2018-05-18T01:32:26.436Z,4.12
2018-05-18T01:34:54.110Z,5.68
2018-05-18T01:37:21.771Z,5.37
2018-05-18T01:39:49.407Z,4.80
2018-05-18T01:42:17.918Z,4.68
2018-05-18T01:44:45.497Z,4.25
2018-05-18T01:47:13.850Z,4.85
2018-05-18T01:49:41.448Z,4.80
2018-05-18T01:52:09.838Z,4.25
2018-05-18T01:54:37.480Z,4.35
2018-05-18T01:57:05.057Z,5.10
2018-05-18T01:59:33.468Z,4.68
2018-05-18T02:02:01.058Z,4.97
2018-05-18T02:04:28.737Z,5.60
2018-05-18T02:06:56.371Z,5.85
2018-05-18T02:09:24.025Z,4.53
2018-05-18T02:11:51.667Z,4.35
2018-05-18T02:14:19.353Z,3.60
2018-05-18T02:16:46.952Z,4.55
2018-05-18T02:19:14.528Z,5.43
2018-05-18T02:21:42.965Z,4.65
2018-05-18T02:24:10.566Z,5.50
2018-05-18T02:26:38.958Z,4.18
2018-05-18T02:29:06.520Z,4.82
2018-05-18T02:31:34.173Z,4.25
2018-05-18T02:34:02.525Z,5.10
2018-05-18T02:36:30.138Z,4.30
2018-05-18T02:38:57.760Z,4.47
2018-05-18T02:41:26.186Z,4.28
2018-05-18T02:43:53.783Z,4.43
2018-05-18T02:46:21.348Z,5.40
2018-05-18T02:48:48.965Z,5.15
2018-05-18T02:51:16.562Z,3.78
2018-05-18T02:53:44.144Z,4.47
2018-05-18T02:56:13.089Z,4.78
2018-05-18T02:58:40.693Z,3.87
2018-05-18T03:01:09.021Z,4.45
2018-05-18T03:03:37.096Z,5.75
2018-05-18T03:06:05.519Z,4.85
2018-05-18T03:08:33.754Z,5.20
2018-05-18T03:11:02.249Z,4.80
2018-05-18T03:13:29.921Z,4.82
2018-05-18T03:15:57.463Z,5.62
2018-05-18T03:18:25.019Z,4.28
2018-05-18T03:20:52.607Z,3.72
2018-05-18T03:23:20.201Z,4.80
2018-05-18T03:25:48.603Z,3.62
2018-05-18T03:28:16.200Z,4.68
2018-05-18T03:30:43.785Z,4.55
2018-05-18T03:33:12.449Z,5.62
2018-05-18T03:35:40.032Z,3.15
2018-05-18T03:38:08.366Z,4.60
2018-05-18T03:40:35.953Z,3.40
2018-05-18T03:43:03.603Z,4.37
2018-05-18T03:45:31.188Z,5.37
2018-05-18T03:47:59.592Z,4.60
2018-05-18T03:50:27.203Z,3.50
2018-05-18T03:52:55.035Z,3.95
2018-05-18T03:55:22.607Z,4.50
2018-05-18T03:57:50.215Z,4.97
2018-05-18T04:00:18.594Z,4.57
2018-05-18T04:06:00.066Z,4.00
2018-05-18T04:08:52.637Z,5.25
2018-05-18T04:11:20.269Z,4.60
2018-05-18T04:13:47.843Z,4.50
2018-05-18T04:16:15.484Z,4.45
2018-05-18T04:18:43.359Z,3.72
2018-05-18T04:21:10.940Z,4.35
2018-05-18T04:23:38.490Z,3.67
2018-05-18T04:26:06.076Z,3.80
2018-05-18T04:28:33.661Z,4.28
2018-05-18T04:31:01.314Z,4.50
2018-05-18T04:33:29.671Z,3.90
2018-05-18T04:35:57.268Z,4.15
2018-05-18T04:38:24.841Z,4.00
2018-05-18T04:40:52.463Z,3.78
2018-05-18T04:43:20.355Z,4.35
2018-05-18T04:45:47.869Z,4.20
2018-05-18T04:48:15.491Z,4.05
2018-05-18T04:50:43.088Z,3.58
2018-05-18T04:53:11.903Z,5.18
2018-05-18T04:55:39.544Z,3.58
2018-05-18T04:58:07.199Z,4.07
2018-05-18T05:00:35.520Z,3.92
2018-05-18T05:03:03.858Z,5.22
2018-05-18T05:05:31.530Z,3.65
2018-05-18T05:07:59.072Z,3.97
2018-05-18T05:10:26.700Z,5.60
2018-05-18T05:12:54.376Z,4.22
2018-05-18T05:15:21.952Z,3.47
2018-05-18T05:17:50.400Z,5.25
2018-05-18T05:20:17.917Z,4.37
2018-05-18T05:22:45.463Z,5.90
2018-05-18T05:25:13.089Z,4.18
2018-05-18T05:27:40.657Z,5.47
2018-05-18T05:30:08.252Z,4.45
2018-05-18T05:32:35.849Z,4.32
2018-05-18T05:35:04.411Z,3.67
2018-05-18T05:37:32.028Z,5.15
2018-05-18T05:39:59.632Z,5.00
2018-05-18T05:42:27.295Z,3.45
2018-05-18T05:44:54.849Z,5.18
2018-05-18T05:47:22.439Z,4.20
2018-05-18T05:49:50.780Z,3.58
2018-05-18T05:52:18.416Z,3.62
2018-05-18T05:54:46.029Z,4.85
2018-05-18T05:57:14.380Z,4.65
2018-05-18T05:59:41.956Z,5.25
2018-05-18T06:02:09.608Z,4.55
2018-05-18T06:04:37.199Z,3.90
2018-05-18T06:07:04.775Z,4.18
2018-05-18T06:09:32.583Z,4.70
2018-05-18T06:12:00.146Z,3.75
2018-05-18T06:14:27.732Z,4.25
2018-05-18T06:16:56.092Z,5.25
2018-05-18T06:19:23.660Z,5.62
2018-05-18T06:21:52.339Z,5.07
2018-05-18T06:24:19.880Z,5.30
2018-05-18T06:26:47.509Z,4.47
2018-05-18T06:29:15.088Z,4.87
2018-05-18T06:31:42.674Z,4.20
2018-05-18T06:34:11.026Z,4.20
2018-05-18T06:36:38.605Z,5.25
2018-05-18T06:39:06.245Z,4.00
2018-05-18T06:41:33.856Z,4.55
2018-05-18T06:44:02.301Z,4.37
2018-05-18T06:46:29.915Z,5.60
2018-05-18T06:48:58.323Z,4.90
2018-05-18T06:51:25.889Z,4.15
2018-05-18T06:53:53.464Z,4.75
2018-05-18T06:56:21.061Z,5.00
2018-05-18T06:58:49.476Z,5.00
2018-05-18T07:01:17.052Z,4.80
2018-05-18T07:03:44.662Z,4.85
2018-05-18T07:06:13.776Z,3.90
2018-05-18T07:08:41.409Z,4.85
2018-05-18T07:11:08.962Z,5.53
2018-05-18T07:13:36.537Z,5.37
2018-05-18T07:16:04.150Z,3.40
2018-05-18T07:18:31.732Z,4.65
2018-05-18T07:20:59.344Z,4.50
2018-05-18T07:23:26.948Z,5.32
2018-05-18T07:25:54.645Z,4.95
2018-05-18T07:28:23.012Z,5.50
2018-05-18T07:30:51.415Z,4.57
2018-05-18T07:33:19.009Z,5.10
2018-05-18T07:35:46.615Z,5.15
2018-05-18T07:38:14.177Z,4.55
2018-05-18T07:40:41.886Z,5.25
2018-05-18T07:43:09.566Z,5.50
2018-05-18T07:45:37.155Z,4.72
2018-05-18T07:48:04.760Z,5.47
2018-05-18T07:50:32.348Z,5.12
2018-05-18T07:52:59.955Z,7.30
2018-05-18T07:55:27.771Z,5.30
2018-05-18T07:57:55.349Z,4.28
2018-05-18T08:00:22.940Z,5.03
2018-05-18T08:02:51.279Z,6.35
2018-05-18T08:05:18.875Z,4.95
2018-05-18T08:07:47.257Z,4.78
2018-05-18T08:10:15.627Z,4.87
2018-05-18T08:12:43.207Z,4.93
2018-05-18T08:15:11.585Z,5.95
2018-05-18T08:17:40.043Z,5.28
2018-05-18T08:20:07.622Z,5.75
2018-05-18T08:22:35.966Z,5.25
2018-05-18T08:25:03.578Z,4.97
2018-05-18T08:27:31.196Z,5.25
2018-05-18T08:29:58.807Z,5.87
2018-05-18T08:32:26.426Z,4.12
2018-05-18T08:34:54.824Z,3.72
2018-05-18T08:37:23.183Z,4.43
2018-05-18T08:39:50.977Z,6.85
2018-05-18T08:42:18.594Z,5.35
2018-05-18T08:44:46.168Z,5.45
2018-05-18T08:47:14.529Z,5.05
2018-05-18T08:49:42.125Z,4.97
2018-05-18T08:52:11.313Z,4.78
2018-05-18T08:54:38.980Z,5.60
2018-05-18T08:57:07.398Z,5.35
2018-05-18T08:59:34.981Z,5.20
2018-05-18T09:02:02.596Z,4.53
2018-05-18T09:04:30.262Z,4.40
2018-05-18T09:06:57.836Z,5.10
2018-05-18T09:09:25.457Z,4.43
2018-05-18T09:11:53.132Z,5.55
2018-05-18T09:14:21.496Z,5.68
2018-05-18T09:16:49.160Z,5.28
2018-05-18T09:19:16.803Z,5.35
2018-05-18T09:21:44.423Z,5.12
2018-05-18T09:24:12.010Z,4.10
2018-05-18T09:26:39.586Z,4.53
2018-05-18T09:29:07.177Z,5.68
2018-05-18T09:31:35.626Z,4.93
2018-05-18T09:34:03.267Z,5.40
2018-05-18T09:36:30.752Z,6.20
2018-05-18T09:38:58.364Z,5.37
2018-05-18T09:41:26.000Z,5.72
2018-05-18T09:43:54.413Z,5.10
2018-05-18T09:46:21.994Z,5.12
2018-05-18T09:48:49.601Z,5.30
2018-05-18T09:51:17.943Z,5.07
2018-05-18T09:53:45.563Z,5.15
2018-05-18T09:56:13.251Z,4.28
2018-05-18T09:58:40.990Z,4.62
2018-05-18T10:01:08.604Z,6.50
2018-05-18T10:03:36.204Z,5.93
2018-05-18T10:06:03.794Z,6.28
2018-05-18T10:08:31.394Z,5.20
2018-05-18T10:10:59.018Z,4.90
2018-05-18T10:13:26.625Z,4.80
2018-05-18T10:15:55.011Z,4.35
2018-05-18T10:18:22.610Z,4.18
2018-05-18T10:20:50.205Z,4.22
2018-05-18T10:23:18.343Z,4.40
2018-05-18T10:25:45.944Z,5.15
2018-05-18T10:28:13.578Z,4.32
2018-05-18T10:30:42.117Z,4.87
2018-05-18T10:33:09.700Z,5.62
2018-05-18T10:35:37.327Z,5.55
2018-05-18T10:38:05.704Z,5.65
2018-05-18T10:40:34.391Z,5.15
2018-05-18T10:43:02.883Z,5.00
2018-05-18T10:45:31.258Z,6.72
2018-05-18T10:47:59.538Z,4.68
2018-05-18T10:50:28.022Z,5.22
2018-05-18T10:52:55.666Z,4.80
2018-05-18T10:55:24.011Z,5.28
2018-05-18T10:57:51.617Z,6.30
2018-05-18T11:00:19.277Z,4.43
2018-05-18T11:02:47.598Z,6.60
2018-05-18T11:05:15.221Z,5.35
2018-05-18T11:07:42.830Z,5.57
2018-05-18T11:10:10.448Z,5.87
2018-05-18T11:12:38.146Z,4.47
2018-05-18T11:15:05.729Z,4.28
2018-05-18T11:17:33.331Z,4.82
2018-05-18T11:20:01.156Z,5.65
2018-05-18T11:22:29.433Z,6.05
2018-05-18T11:24:57.024Z,4.47
2018-05-18T11:27:26.095Z,5.05
2018-05-18T11:29:53.666Z,5.62
2018-05-18T11:32:22.064Z,5.25
2018-05-18T11:34:49.668Z,5.07
2018-05-18T11:37:17.322Z,5.85
2018-05-18T11:39:44.908Z,5.53
2018-05-18T11:42:12.491Z,6.43
2018-05-18T11:44:40.827Z,6.37
2018-05-18T11:47:08.472Z,5.47
2018-05-18T11:49:36.068Z,5.22
2018-05-18T11:52:03.655Z,6.53
2018-05-18T11:54:31.280Z,5.28
2018-05-18T11:56:58.844Z,5.87
2018-05-18T11:59:27.069Z,6.35
2018-05-18T12:01:54.671Z,5.50
2018-05-18T12:04:22.246Z,5.93
2018-05-18T12:06:49.810Z,5.40
2018-05-18T12:09:17.462Z,5.30
2018-05-18T12:11:45.087Z,5.65
2018-05-18T12:14:12.689Z,5.30
2018-05-18T12:16:40.294Z,18.87
2018-05-18T12:19:07.909Z,6.63
2018-05-18T12:21:35.492Z,5.03
2018-05-18T12:24:03.878Z,5.57
2018-05-18T12:26:31.577Z,6.37
2018-05-18T12:28:59.283Z,6.35
2018-05-18T12:31:27.723Z,7.00
2018-05-18T12:33:56.103Z,6.57
2018-05-18T12:36:23.690Z,6.30
2018-05-18T12:38:51.256Z,5.55
2018-05-18T12:41:18.897Z,7.10
2018-05-18T12:43:46.481Z,7.43
2018-05-18T12:46:14.069Z,7.22
2018-05-18T12:48:42.422Z,7.53
2018-05-18T12:51:10.799Z,5.78
2018-05-18T12:53:38.425Z,6.60
2018-05-18T12:56:05.998Z,7.07
2018-05-18T12:58:33.960Z,6.68
2018-05-18T13:01:01.542Z,6.82
2018-05-18T13:03:29.159Z,6.78
2018-05-18T13:05:56.830Z,9.05
2018-05-18T13:08:24.446Z,6.73
2018-05-18T13:10:52.138Z,4.93
2018-05-18T13:13:19.762Z,5.87
2018-05-18T13:15:47.383Z,7.20
2018-05-18T13:18:15.071Z,6.40
2018-05-18T13:20:42.705Z,6.33
2018-05-18T13:23:10.362Z,7.10
2018-05-18T13:25:37.967Z,6.47
2018-05-18T13:28:05.820Z,6.32
2018-05-18T13:30:33.412Z,6.60
2018-05-18T13:33:01.872Z,5.93
2018-05-18T13:35:29.507Z,7.03
2018-05-18T13:37:58.793Z,6.40
2018-05-18T13:40:26.403Z,7.40
2018-05-18T13:42:54.211Z,6.97
2018-05-18T13:45:21.908Z,7.17
2018-05-18T13:47:49.460Z,6.87
2018-05-18T13:50:17.107Z,7.80
2018-05-18T13:52:44.689Z,6.55
2018-05-18T13:55:12.286Z,6.77
2018-05-18T13:57:40.625Z,7.10
2018-05-18T14:00:08.209Z,6.77
2018-05-18T14:02:35.907Z,7.07
2018-05-18T14:05:03.552Z,8.37
2018-05-18T14:07:31.904Z,7.33
2018-05-18T14:09:59.467Z,6.70
2018-05-18T14:12:27.130Z,7.87
2018-05-18T14:14:54.807Z,6.53
2018-05-18T14:17:23.175Z,7.37
2018-05-18T14:19:50.787Z,7.30
2018-05-18T14:22:18.356Z,7.70
2018-05-18T14:24:46.263Z,6.03
2018-05-18T14:27:13.910Z,7.40
2018-05-18T14:29:43.321Z,7.43
2018-05-18T14:32:11.736Z,7.13
2018-05-18T14:34:39.284Z,6.37
2018-05-18T14:37:07.749Z,6.40
2018-05-18T14:39:35.448Z,5.60
2018-05-18T14:42:03.074Z,6.75
2018-05-18T14:44:30.659Z,6.67
2018-05-18T14:46:58.306Z,7.25
2018-05-18T14:49:26.881Z,6.23
2018-05-18T14:51:54.468Z,6.63
2018-05-18T14:54:22.069Z,6.57
2018-05-18T14:56:49.681Z,6.90
2018-05-18T14:59:18.044Z,7.00
2018-05-18T15:01:45.688Z,5.13
2018-05-18T15:04:13.335Z,6.50
2018-05-18T15:06:40.965Z,6.13
2018-05-18T15:09:08.702Z,6.47
2018-05-18T15:11:37.161Z,6.90
2018-05-18T15:14:05.694Z,5.70
2018-05-18T15:16:33.571Z,7.03
2018-05-18T15:19:01.357Z,6.73
2018-05-18T15:21:28.944Z,6.77
2018-05-18T15:23:58.127Z,6.67
2018-05-18T15:26:25.686Z,6.87
2018-05-18T15:28:53.364Z,7.27
2018-05-18T15:31:20.961Z,7.07
2018-05-18T15:33:48.594Z,6.60
2018-05-18T15:36:16.174Z,8.50
2018-05-18T15:38:44.583Z,6.70
2018-05-18T15:41:12.149Z,6.50
2018-05-18T15:43:39.805Z,7.13
2018-05-18T15:46:07.564Z,6.87
2018-05-18T15:48:35.214Z,6.53
2018-05-18T15:51:02.875Z,7.40
2018-05-18T15:53:30.452Z,6.20
2018-05-18T15:55:58.095Z,6.50
2018-05-18T15:58:25.684Z,5.83
2018-05-18T16:00:53.326Z,6.93
2018-05-18T16:03:20.971Z,7.50
2018-05-18T16:05:48.577Z,6.10
2018-05-18T16:08:16.198Z,7.03
2018-05-18T16:10:43.819Z,6.73
2018-05-18T16:13:11.443Z,7.10
2018-05-18T16:15:39.079Z,7.60
2018-05-18T16:18:06.687Z,6.95
2018-05-18T16:20:34.278Z,6.40
2018-05-18T16:23:01.992Z,6.20
2018-05-18T16:25:30.397Z,5.75
2018-05-18T16:27:58.050Z,6.10
2018-05-18T16:33:16.037Z,6.60
2018-05-18T16:35:44.477Z,6.97
2018-05-18T16:38:12.128Z,8.73
2018-05-18T16:40:39.752Z,6.30
2018-05-18T16:43:08.124Z,6.60
2018-05-18T16:45:36.458Z,7.60
2018-05-18T16:48:04.129Z,5.50
2018-05-18T16:50:31.885Z,6.97
2018-05-18T16:52:59.500Z,6.87
2018-05-18T16:55:27.934Z,7.40
2018-05-18T16:57:55.673Z,6.30
2018-05-18T17:00:23.253Z,8.23
2018-05-18T17:02:50.890Z,6.53
2018-05-18T17:05:18.544Z,7.70
2018-05-18T17:07:46.153Z,7.40
2018-05-18T17:10:13.731Z,7.03
2018-05-18T17:12:41.357Z,6.10
2018-05-18T17:15:08.925Z,4.77
2018-05-18T17:17:36.513Z,6.07
2018-05-18T17:20:04.105Z,7.00
2018-05-18T17:22:31.680Z,7.20
2018-05-18T17:24:59.272Z,6.63
2018-05-18T17:27:26.871Z,7.17
2018-05-18T17:29:55.245Z,6.57
2018-05-18T17:32:23.627Z,6.77
2018-05-18T17:34:52.047Z,5.77
2018-05-18T17:37:19.652Z,7.73
2018-05-18T17:39:47.241Z,6.40
2018-05-18T17:42:14.970Z,7.00
2018-05-18T17:44:43.296Z,9.20
2018-05-18T17:47:11.027Z,6.17
2018-05-18T17:49:39.384Z,7.40
2018-05-18T17:52:07.764Z,6.93
2018-05-18T17:54:35.353Z,7.07
2018-05-18T17:57:02.978Z,7.87
2018-05-18T17:59:30.600Z,6.53
2018-05-18T18:01:58.204Z,6.28
2018-05-18T18:04:25.847Z,6.75
2018-05-18T18:06:53.496Z,6.90
2018-05-18T18:09:21.138Z,9.80
2018-05-18T18:11:48.829Z,7.67
2018-05-18T18:14:16.399Z,9.50
2018-05-18T18:16:44.047Z,8.32
2018-05-18T18:19:11.695Z,7.55
2018-05-18T18:21:39.332Z,10.40
2018-05-18T18:24:07.761Z,7.30
2018-05-18T18:26:35.402Z,8.60
2018-05-18T18:29:03.822Z,10.38
2018-05-18T18:31:31.446Z,7.62
2018-05-18T18:33:59.077Z,6.15
2018-05-18T18:36:27.445Z,6.80
2018-05-18T18:38:55.803Z,7.25
2018-05-18T18:41:23.426Z,7.55
2018-05-18T18:43:51.061Z,7.60
2018-05-18T18:46:18.679Z,7.68
2018-05-18T18:48:46.254Z,6.12
2018-05-18T18:51:13.878Z,6.40
2018-05-18T18:53:41.477Z,6.60
2018-05-18T18:56:09.843Z,5.97
2018-05-18T18:58:37.465Z,7.60
2018-05-18T19:01:05.176Z,5.70
2018-05-18T19:03:33.543Z,5.80
2018-05-18T19:06:01.171Z,6.93
2018-05-18T19:08:28.875Z,7.37
2018-05-18T19:10:56.496Z,6.07
2018-05-18T19:13:24.170Z,6.50
2018-05-18T19:15:52.529Z,6.85
2018-05-18T19:18:20.123Z,6.45
2018-05-18T19:20:47.743Z,7.80
2018-05-18T19:23:15.403Z,6.25
2018-05-18T19:25:43.154Z,6.00
2018-05-18T19:28:11.525Z,6.05
2018-05-18T19:30:39.896Z,6.60
2018-05-18T19:33:07.507Z,5.85
2018-05-18T19:35:35.150Z,6.75
2018-05-18T19:38:02.760Z,6.10
2018-05-18T19:40:30.388Z,6.32
2018-05-18T19:42:58.089Z,5.50
2018-05-18T19:45:25.751Z,6.15
2018-05-18T19:47:53.362Z,6.28
2018-05-18T19:50:20.947Z,6.37
2018-05-18T19:52:48.594Z,6.72
2018-05-18T19:55:16.240Z,6.85
2018-05-18T19:57:43.844Z,9.18
2018-05-18T20:00:12.013Z,5.75
2018-05-18T20:02:39.591Z,8.10
2018-05-18T20:05:07.257Z,6.80
2018-05-18T20:07:34.829Z,7.57
2018-05-18T20:10:02.455Z,7.90
2018-05-18T20:15:04.187Z,6.25
2018-05-18T20:17:31.822Z,7.40
2018-05-18T20:19:59.441Z,5.30
2018-05-18T20:22:27.030Z,6.70
2018-05-18T20:24:54.594Z,7.57
2018-05-18T20:27:22.347Z,6.35
2018-05-18T20:29:49.984Z,6.68
2018-05-18T20:32:17.652Z,5.95
2018-05-18T20:34:45.262Z,6.37
2018-05-18T20:37:14.527Z,6.72
2018-05-18T20:39:42.174Z,6.75
2018-05-18T20:42:09.753Z,6.37
2018-05-18T20:44:37.444Z,7.10
2018-05-18T20:47:05.015Z,6.18
2018-05-18T20:49:33.412Z,5.93
2018-05-18T20:52:01.352Z,6.65
2018-05-18T20:54:28.991Z,6.80
2018-05-18T20:56:56.635Z,5.85
2018-05-18T20:59:24.309Z,7.47
2018-05-18T21:01:51.921Z,7.10
2018-05-18T21:04:20.275Z,5.80
2018-05-18T21:06:47.957Z,6.50
2018-05-18T21:09:16.961Z,6.75
2018-05-18T21:11:44.724Z,7.57
2018-05-18T21:14:12.316Z,5.80
2018-05-18T21:16:39.997Z,5.37
2018-05-18T21:19:07.603Z,6.15
2018-05-18T21:21:35.187Z,7.90
2018-05-18T21:24:03.340Z,5.95
2018-05-18T21:26:30.924Z,7.25
2018-05-18T21:28:58.480Z,7.28
2018-05-18T21:31:26.090Z,6.78
2018-05-18T21:33:53.651Z,9.30
2018-05-18T21:36:22.055Z,6.70
2018-05-18T21:38:49.672Z,8.80
2018-05-18T21:41:17.288Z,6.93
2018-05-18T21:43:44.938Z,5.87
2018-05-18T21:46:14.042Z,7.12
2018-05-18T21:48:41.631Z,9.52
2018-05-18T21:51:09.215Z,7.47
2018-05-18T21:53:36.830Z,7.03
2018-05-18T21:56:04.423Z,6.95
2018-05-18T21:58:32.166Z,7.30
2018-05-18T22:00:59.734Z,7.60
2018-05-18T22:03:27.315Z,6.80
2018-05-18T22:05:54.920Z,8.52
2018-05-18T22:08:23.293Z,5.95
2018-05-18T22:10:51.675Z,8.10
2018-05-18T22:13:19.281Z,8.50
2018-05-18T22:15:46.900Z,7.68
2018-05-18T22:18:14.521Z,7.43
2018-05-18T22:20:42.109Z,7.87
2018-05-18T22:23:09.677Z,7.35
2018-05-18T22:25:38.077Z,9.10
2018-05-18T22:28:05.672Z,7.28
2018-05-18T22:30:33.318Z,9.88
2018-05-18T22:33:00.904Z,9.40
2018-05-18T22:35:28.487Z,8.25
2018-05-18T22:37:56.093Z,7.62
2018-05-18T22:40:23.813Z,8.48
2018-05-18T22:42:51.441Z,8.07
2018-05-18T22:45:19.038Z,7.82
2018-05-18T22:47:47.411Z,8.32
2018-05-18T22:50:15.044Z,9.45
2018-05-18T22:52:42.658Z,9.00
2018-05-18T22:55:11.001Z,8.75
2018-05-18T22:57:38.661Z,8.57
2018-05-18T23:00:06.269Z,8.10
2018-05-18T23:02:33.879Z,9.02
2018-05-18T23:05:01.517Z,9.38
2018-05-18T23:07:29.074Z,8.43
2018-05-18T23:09:56.653Z,8.50
2018-05-18T23:12:24.228Z,9.23
2018-05-18T23:14:51.885Z,9.57
2018-05-18T23:17:19.462Z,9.35
2018-05-18T23:19:47.832Z,9.45
2018-05-18T23:22:15.390Z,8.88
2018-05-18T23:24:42.962Z,8.68
2018-05-18T23:27:11.306Z,8.85
2018-05-18T23:29:39.949Z,9.50
2018-05-18T23:32:07.559Z,8.45
2018-05-18T23:34:35.135Z,9.20
2018-05-18T23:37:03.044Z,9.48
2018-05-18T23:39:30.641Z,9.30
2018-05-18T23:41:58.215Z,8.48
2018-05-18T23:44:25.824Z,8.38
2018-05-18T23:46:53.415Z,8.05
2018-05-18T23:49:21.000Z,8.93
2018-05-18T23:51:48.558Z,9.07
2018-05-18T23:54:16.189Z,9.30
2018-05-18T23:56:43.782Z,11.18
2018-05-18T23:59:12.145Z,10.02
